Bougainville Reef, Australia
Current Conditions -  °F | °C
As of 7:00 AM on Monday 22 Dec 2014 (Local Time) from YBCS Reporting Station
Rain Showers Rain Showers  
Wind Chill: 77°   Ceiling: Unl
Heat Index: 78°   Visibility: 6mi
Dew Point: 73°   Wind: 12mph
Humidity: 89%   Direction: 180°S
Pressure: 29.85"   Gusts: NA
Location:  15.5°S, 147.12°E
Report Text: YBCS 212100Z 18010KT 9999 VCSH SCT020 SCT060 25/23 Q1011
Loading
Personal Weather Stations






























Interactive Weather Map New forecast layout! Learn more

10-Day Weather Forecast

Advertisements
Track Severe Weather on mobile